sensor_id;sensor_type;location;lat;lon;timestamp;P1;durP1;ratioP1;P2;durP2;ratioP2
48578;SDS011;34357;51.948;6.132;2022-08-19T00:00:27;23.42;;;21.10;;
48578;SDS011;34357;51.948;6.132;2022-08-19T00:02:54;25.58;;;23.15;;
48578;SDS011;34357;51.948;6.132;2022-08-19T00:05:20;23.75;;;21.38;;
48578;SDS011;34357;51.948;6.132;2022-08-19T00:07:46;25.85;;;23.27;;
48578;SDS011;34357;51.948;6.132;2022-08-19T00:10:14;25.58;;;22.83;;
48578;SDS011;34357;51.948;6.132;2022-08-19T00:12:41;23.40;;;20.92;;
48578;SDS011;34357;51.948;6.132;2022-08-19T00:15:08;23.20;;;20.90;;
48578;SDS011;34357;51.948;6.132;2022-08-19T00:17:38;22.77;;;20.40;;
48578;SDS011;34357;51.948;6.132;2022-08-19T00:20:05;22.27;;;19.40;;
48578;SDS011;34357;51.948;6.132;2022-08-19T00:22:31;20.90;;;18.90;;
48578;SDS011;34357;51.948;6.132;2022-08-19T00:24:57;22.27;;;19.98;;
48578;SDS011;34357;51.948;6.132;2022-08-19T00:27:23;22.70;;;20.40;;
48578;SDS011;34357;51.948;6.132;2022-08-19T00:29:48;21.27;;;19.10;;
48578;SDS011;34357;51.948;6.132;2022-08-19T00:32:14;21.85;;;19.58;;
48578;SDS011;34357;51.948;6.132;2022-08-19T00:34:40;21.58;;;19.48;;
48578;SDS011;34357;51.948;6.132;2022-08-19T00:37:05;21.58;;;19.42;;
48578;SDS011;34357;51.948;6.132;2022-08-19T00:39:31;21.73;;;19.52;;
48578;SDS011;34357;51.948;6.132;2022-08-19T00:41:57;21.08;;;18.95;;
48578;SDS011;34357;51.948;6.132;2022-08-19T00:44:25;21.30;;;19.08;;
48578;SDS011;34357;51.948;6.132;2022-08-19T00:46:53;21.75;;;19.65;;
48578;SDS011;34357;51.948;6.132;2022-08-19T00:49:27;23.50;;;19.85;;
48578;SDS011;34357;51.948;6.132;2022-08-19T00:54:52;23.35;;;20.88;;
48578;SDS011;34357;51.948;6.132;2022-08-19T00:57:18;23.60;;;21.08;;
48578;SDS011;34357;51.948;6.132;2022-08-19T00:59:48;26.08;;;20.63;;
48578;SDS011;34357;51.948;6.132;2022-08-19T01:02:19;24.73;;;22.20;;
48578;SDS011;34357;51.948;6.132;2022-08-19T01:04:45;24.08;;;21.30;;
48578;SDS011;34357;51.948;6.132;2022-08-19T01:07:11;25.98;;;22.35;;
48578;SDS011;34357;51.948;6.132;2022-08-19T01:09:37;25.15;;;22.67;;
48578;SDS011;34357;51.948;6.132;2022-08-19T01:12:03;24.73;;;22.33;;
48578;SDS011;34357;51.948;6.132;2022-08-19T01:14:29;25.50;;;23.00;;
48578;SDS011;34357;51.948;6.132;2022-08-19T01:16:56;26.40;;;23.67;;
48578;SDS011;34357;51.948;6.132;2022-08-19T01:19:33;27.23;;;24.38;;
48578;SDS011;34357;51.948;6.132;2022-08-19T01:22:03;28.15;;;24.10;;
48578;SDS011;34357;51.948;6.132;2022-08-19T01:24:37;25.83;;;23.23;;
48578;SDS011;34357;51.948;6.132;2022-08-19T01:27:06;25.67;;;22.95;;
48578;SDS011;34357;51.948;6.132;2022-08-19T01:29:32;25.73;;;22.90;;
48578;SDS011;34357;51.948;6.132;2022-08-19T01:31:58;25.67;;;23.00;;
48578;SDS011;34357;51.948;6.132;2022-08-19T01:34:25;23.38;;;20.95;;
48578;SDS011;34357;51.948;6.132;2022-08-19T01:36:51;24.58;;;22.23;;
48578;SDS011;34357;51.948;6.132;2022-08-19T01:39:18;26.52;;;23.92;;
48578;SDS011;34357;51.948;6.132;2022-08-19T01:41:47;27.08;;;24.13;;
48578;SDS011;34357;51.948;6.132;2022-08-19T01:44:13;25.77;;;23.17;;
48578;SDS011;34357;51.948;6.132;2022-08-19T01:46:39;24.98;;;22.52;;
48578;SDS011;34357;51.948;6.132;2022-08-19T01:49:06;25.40;;;22.70;;
48578;SDS011;34357;51.948;6.132;2022-08-19T01:51:33;28.08;;;25.13;;
48578;SDS011;34357;51.948;6.132;2022-08-19T01:53:58;26.95;;;24.08;;
48578;SDS011;34357;51.948;6.132;2022-08-19T01:56:24;24.98;;;22.42;;
48578;SDS011;34357;51.948;6.132;2022-08-19T01:58:55;24.67;;;22.27;;
48578;SDS011;34357;51.948;6.132;2022-08-19T02:01:23;24.90;;;22.30;;
48578;SDS011;34357;51.948;6.132;2022-08-19T02:03:49;25.25;;;22.58;;
48578;SDS011;34357;51.948;6.132;2022-08-19T02:06:16;25.88;;;23.33;;
48578;SDS011;34357;51.948;6.132;2022-08-19T02:08:42;27.92;;;25.02;;
48578;SDS011;34357;51.948;6.132;2022-08-19T02:11:17;24.48;;;22.08;;
48578;SDS011;34357;51.948;6.132;2022-08-19T02:13:47;27.67;;;24.20;;
48578;SDS011;34357;51.948;6.132;2022-08-19T02:16:14;25.65;;;23.02;;
48578;SDS011;34357;51.948;6.132;2022-08-19T02:18:41;24.50;;;22.20;;
48578;SDS011;34357;51.948;6.132;2022-08-19T02:21:07;25.83;;;23.30;;
48578;SDS011;34357;51.948;6.132;2022-08-19T02:23:33;24.92;;;22.33;;
48578;SDS011;34357;51.948;6.132;2022-08-19T02:25:58;26.77;;;24.17;;
48578;SDS011;34357;51.948;6.132;2022-08-19T02:28:24;25.88;;;23.38;;
48578;SDS011;34357;51.948;6.132;2022-08-19T02:30:49;28.05;;;25.33;;
48578;SDS011;34357;51.948;6.132;2022-08-19T02:33:15;26.77;;;24.02;;
48578;SDS011;34357;51.948;6.132;2022-08-19T02:35:45;27.23;;;24.42;;
48578;SDS011;34357;51.948;6.132;2022-08-19T02:38:11;29.02;;;26.17;;
48578;SDS011;34357;51.948;6.132;2022-08-19T02:40:54;27.38;;;24.50;;
48578;SDS011;34357;51.948;6.132;2022-08-19T02:43:23;26.00;;;23.23;;
48578;SDS011;34357;51.948;6.132;2022-08-19T02:45:49;26.42;;;22.33;;
48578;SDS011;34357;51.948;6.132;2022-08-19T02:48:17;25.23;;;22.73;;
48578;SDS011;34357;51.948;6.132;2022-08-19T02:50:44;27.33;;;24.45;;
48578;SDS011;34357;51.948;6.132;2022-08-19T02:53:10;27.63;;;25.00;;
48578;SDS011;34357;51.948;6.132;2022-08-19T02:55:35;27.05;;;24.38;;
48578;SDS011;34357;51.948;6.132;2022-08-19T02:58:06;26.13;;;23.33;;
48578;SDS011;34357;51.948;6.132;2022-08-19T03:00:32;27.38;;;23.50;;
48578;SDS011;34357;51.948;6.132;2022-08-19T03:02:58;27.17;;;24.33;;
48578;SDS011;34357;51.948;6.132;2022-08-19T03:05:25;27.55;;;24.73;;
48578;SDS011;34357;51.948;6.132;2022-08-19T03:07:52;28.95;;;25.95;;
48578;SDS011;34357;51.948;6.132;2022-08-19T03:10:18;28.52;;;25.60;;
48578;SDS011;34357;51.948;6.132;2022-08-19T03:12:44;28.42;;;25.40;;
48578;SDS011;34357;51.948;6.132;2022-08-19T03:15:11;29.35;;;26.45;;
48578;SDS011;34357;51.948;6.132;2022-08-19T03:17:37;27.42;;;24.52;;
48578;SDS011;34357;51.948;6.132;2022-08-19T03:20:03;28.13;;;25.17;;
48578;SDS011;34357;51.948;6.132;2022-08-19T03:22:29;29.35;;;26.35;;
48578;SDS011;34357;51.948;6.132;2022-08-19T03:24:55;28.10;;;25.20;;
48578;SDS011;34357;51.948;6.132;2022-08-19T03:27:21;28.88;;;25.98;;
48578;SDS011;34357;51.948;6.132;2022-08-19T03:29:47;28.63;;;25.70;;
48578;SDS011;34357;51.948;6.132;2022-08-19T03:32:13;29.05;;;25.98;;
48578;SDS011;34357;51.948;6.132;2022-08-19T03:34:39;28.75;;;25.90;;
48578;SDS011;34357;51.948;6.132;2022-08-19T03:37:08;29.90;;;27.00;;
48578;SDS011;34357;51.948;6.132;2022-08-19T03:39:38;30.55;;;27.30;;
48578;SDS011;34357;51.948;6.132;2022-08-19T03:42:05;29.63;;;26.60;;
48578;SDS011;34357;51.948;6.132;2022-08-19T03:44:31;29.30;;;26.20;;
48578;SDS011;34357;51.948;6.132;2022-08-19T03:46:58;29.58;;;26.45;;
48578;SDS011;34357;51.948;6.132;2022-08-19T03:49:26;30.17;;;26.80;;
48578;SDS011;34357;51.948;6.132;2022-08-19T03:51:56;27.88;;;25.15;;
48578;SDS011;34357;51.948;6.132;2022-08-19T03:54:23;26.83;;;24.15;;
48578;SDS011;34357;51.948;6.132;2022-08-19T03:56:50;27.50;;;24.90;;
48578;SDS011;34357;51.948;6.132;2022-08-19T03:59:28;27.30;;;24.45;;
48578;SDS011;34357;51.948;6.132;2022-08-19T04:01:56;28.13;;;25.33;;
48578;SDS011;34357;51.948;6.132;2022-08-19T04:04:24;26.73;;;24.13;;
48578;SDS011;34357;51.948;6.132;2022-08-19T04:06:51;26.25;;;23.55;;
48578;SDS011;34357;51.948;6.132;2022-08-19T04:09:17;25.15;;;22.52;;
48578;SDS011;34357;51.948;6.132;2022-08-19T04:11:45;25.30;;;22.80;;
48578;SDS011;34357;51.948;6.132;2022-08-19T04:14:15;26.27;;;23.50;;
48578;SDS011;34357;51.948;6.132;2022-08-19T04:16:44;28.30;;;25.52;;
48578;SDS011;34357;51.948;6.132;2022-08-19T04:19:11;26.90;;;24.20;;
48578;SDS011;34357;51.948;6.132;2022-08-19T04:21:37;25.08;;;22.52;;
48578;SDS011;34357;51.948;6.132;2022-08-19T04:24:03;26.13;;;23.45;;
48578;SDS011;34357;51.948;6.132;2022-08-19T04:26:31;25.38;;;22.88;;
48578;SDS011;34357;51.948;6.132;2022-08-19T04:29:01;26.85;;;24.25;;
48578;SDS011;34357;51.948;6.132;2022-08-19T04:31:30;26.63;;;23.92;;
48578;SDS011;34357;51.948;6.132;2022-08-19T04:34:00;26.97;;;24.23;;
48578;SDS011;34357;51.948;6.132;2022-08-19T04:36:30;27.45;;;24.83;;
48578;SDS011;34357;51.948;6.132;2022-08-19T04:38:59;26.30;;;23.73;;
48578;SDS011;34357;51.948;6.132;2022-08-19T04:41:34;24.63;;;21.35;;
48578;SDS011;34357;51.948;6.132;2022-08-19T04:44:19;25.13;;;22.73;;
48578;SDS011;34357;51.948;6.132;2022-08-19T04:46:45;27.10;;;24.40;;
48578;SDS011;34357;51.948;6.132;2022-08-19T04:49:13;28.40;;;25.40;;
48578;SDS011;34357;51.948;6.132;2022-08-19T04:51:42;27.10;;;24.40;;
48578;SDS011;34357;51.948;6.132;2022-08-19T04:54:10;29.38;;;26.30;;
48578;SDS011;34357;51.948;6.132;2022-08-19T04:56:36;31.20;;;27.85;;
48578;SDS011;34357;51.948;6.132;2022-08-19T04:59:02;28.90;;;25.88;;
48578;SDS011;34357;51.948;6.132;2022-08-19T05:01:31;31.52;;;28.33;;
48578;SDS011;34357;51.948;6.132;2022-08-19T05:03:58;30.63;;;27.42;;
48578;SDS011;34357;51.948;6.132;2022-08-19T05:06:25;35.22;;;28.45;;
48578;SDS011;34357;51.948;6.132;2022-08-19T05:08:53;32.20;;;28.95;;
48578;SDS011;34357;51.948;6.132;2022-08-19T05:11:20;30.90;;;27.63;;
48578;SDS011;34357;51.948;6.132;2022-08-19T05:13:51;32.47;;;29.08;;
48578;SDS011;34357;51.948;6.132;2022-08-19T05:16:18;30.75;;;27.55;;
48578;SDS011;34357;51.948;6.132;2022-08-19T05:18:45;30.08;;;27.08;;
48578;SDS011;34357;51.948;6.132;2022-08-19T05:21:29;29.88;;;26.75;;
48578;SDS011;34357;51.948;6.132;2022-08-19T05:24:15;29.27;;;26.27;;
48578;SDS011;34357;51.948;6.132;2022-08-19T05:26:43;27.77;;;25.05;;
48578;SDS011;34357;51.948;6.132;2022-08-19T05:29:13;32.97;;;26.45;;
48578;SDS011;34357;51.948;6.132;2022-08-19T05:31:41;29.70;;;26.52;;
48578;SDS011;34357;51.948;6.132;2022-08-19T05:34:07;30.88;;;27.67;;
48578;SDS011;34357;51.948;6.132;2022-08-19T05:36:35;34.05;;;27.15;;
48578;SDS011;34357;51.948;6.132;2022-08-19T05:39:04;33.38;;;29.70;;
48578;SDS011;34357;51.948;6.132;2022-08-19T05:41:31;33.90;;;30.30;;
48578;SDS011;34357;51.948;6.132;2022-08-19T05:43:57;34.13;;;30.65;;
48578;SDS011;34357;51.948;6.132;2022-08-19T05:46:23;34.75;;;31.05;;
48578;SDS011;34357;51.948;6.132;2022-08-19T05:48:49;35.85;;;31.98;;
48578;SDS011;34357;51.948;6.132;2022-08-19T05:51:15;35.22;;;31.48;;
48578;SDS011;34357;51.948;6.132;2022-08-19T05:53:41;33.95;;;30.60;;
48578;SDS011;34357;51.948;6.132;2022-08-19T05:56:10;35.53;;;31.80;;
48578;SDS011;34357;51.948;6.132;2022-08-19T05:58:38;38.25;;;33.45;;
48578;SDS011;34357;51.948;6.132;2022-08-19T06:01:09;39.25;;;32.70;;
48578;SDS011;34357;51.948;6.132;2022-08-19T06:03:36;39.00;;;34.92;;
48578;SDS011;34357;51.948;6.132;2022-08-19T06:06:05;40.78;;;35.35;;
48578;SDS011;34357;51.948;6.132;2022-08-19T06:08:33;38.88;;;34.67;;
48578;SDS011;34357;51.948;6.132;2022-08-19T06:11:11;38.80;;;34.60;;
48578;SDS011;34357;51.948;6.132;2022-08-19T06:13:39;42.25;;;35.85;;
48578;SDS011;34357;51.948;6.132;2022-08-19T06:16:04;43.45;;;37.00;;
48578;SDS011;34357;51.948;6.132;2022-08-19T06:18:30;43.95;;;37.95;;
48578;SDS011;34357;51.948;6.132;2022-08-19T06:20:57;42.10;;;36.72;;
48578;SDS011;34357;51.948;6.132;2022-08-19T06:23:22;42.05;;;37.47;;
48578;SDS011;34357;51.948;6.132;2022-08-19T06:25:48;53.75;;;39.47;;
48578;SDS011;34357;51.948;6.132;2022-08-19T06:28:14;38.83;;;34.17;;
48578;SDS011;34357;51.948;6.132;2022-08-19T06:30:40;38.72;;;34.63;;
48578;SDS011;34357;51.948;6.132;2022-08-19T06:33:06;36.55;;;32.25;;
48578;SDS011;34357;51.948;6.132;2022-08-19T06:35:32;37.25;;;30.70;;
48578;SDS011;34357;51.948;6.132;2022-08-19T06:38:03;35.75;;;31.45;;
48578;SDS011;34357;51.948;6.132;2022-08-19T06:40:30;39.95;;;34.20;;
48578;SDS011;34357;51.948;6.132;2022-08-19T06:42:55;38.80;;;34.38;;
48578;SDS011;34357;51.948;6.132;2022-08-19T06:45:23;40.25;;;34.88;;
48578;SDS011;34357;51.948;6.132;2022-08-19T06:47:50;40.20;;;34.53;;
48578;SDS011;34357;51.948;6.132;2022-08-19T06:50:19;41.05;;;35.35;;
48578;SDS011;34357;51.948;6.132;2022-08-19T06:52:45;39.10;;;33.92;;
48578;SDS011;34357;51.948;6.132;2022-08-19T06:55:11;41.03;;;34.50;;
48578;SDS011;34357;51.948;6.132;2022-08-19T06:57:37;36.75;;;32.22;;
48578;SDS011;34357;51.948;6.132;2022-08-19T07:00:04;39.22;;;32.28;;
48578;SDS011;34357;51.948;6.132;2022-08-19T07:02:31;40.17;;;32.58;;
48578;SDS011;34357;51.948;6.132;2022-08-19T07:04:57;36.88;;;32.47;;
48578;SDS011;34357;51.948;6.132;2022-08-19T07:07:23;41.05;;;31.75;;
48578;SDS011;34357;51.948;6.132;2022-08-19T07:09:49;43.90;;;33.88;;
48578;SDS011;34357;51.948;6.132;2022-08-19T07:12:17;48.05;;;36.58;;
48578;SDS011;34357;51.948;6.132;2022-08-19T07:14:43;40.30;;;34.25;;
48578;SDS011;34357;51.948;6.132;2022-08-19T07:17:11;45.58;;;36.45;;
48578;SDS011;34357;51.948;6.132;2022-08-19T07:19:37;45.20;;;35.50;;
48578;SDS011;34357;51.948;6.132;2022-08-19T07:22:05;47.65;;;37.25;;
48578;SDS011;34357;51.948;6.132;2022-08-19T07:24:32;47.42;;;37.65;;
48578;SDS011;34357;51.948;6.132;2022-08-19T07:26:59;43.90;;;36.75;;
48578;SDS011;34357;51.948;6.132;2022-08-19T07:29:28;47.58;;;38.00;;
48578;SDS011;34357;51.948;6.132;2022-08-19T07:31:56;46.47;;;36.92;;
48578;SDS011;34357;51.948;6.132;2022-08-19T07:34:24;52.30;;;40.53;;
48578;SDS011;34357;51.948;6.132;2022-08-19T07:36:50;54.17;;;40.75;;
48578;SDS011;34357;51.948;6.132;2022-08-19T07:39:21;59.05;;;45.00;;
48578;SDS011;34357;51.948;6.132;2022-08-19T07:41:49;59.67;;;44.67;;
48578;SDS011;34357;51.948;6.132;2022-08-19T07:44:15;60.30;;;46.08;;
48578;SDS011;34357;51.948;6.132;2022-08-19T07:46:43;70.97;;;47.60;;
48578;SDS011;34357;51.948;6.132;2022-08-19T07:49:11;69.68;;;50.40;;
48578;SDS011;34357;51.948;6.132;2022-08-19T07:51:44;71.70;;;50.58;;
48578;SDS011;34357;51.948;6.132;2022-08-19T07:54:11;79.00;;;52.80;;
48578;SDS011;34357;51.948;6.132;2022-08-19T07:56:37;71.93;;;50.60;;
48578;SDS011;34357;51.948;6.132;2022-08-19T07:59:02;76.53;;;52.22;;
48578;SDS011;34357;51.948;6.132;2022-08-19T08:01:30;74.45;;;51.85;;
48578;SDS011;34357;51.948;6.132;2022-08-19T08:03:56;75.93;;;53.35;;
48578;SDS011;34357;51.948;6.132;2022-08-19T08:06:41;79.38;;;52.25;;
48578;SDS011;34357;51.948;6.132;2022-08-19T08:09:28;76.15;;;52.53;;
48578;SDS011;34357;51.948;6.132;2022-08-19T08:11:58;73.95;;;51.13;;
48578;SDS011;34357;51.948;6.132;2022-08-19T08:14:30;80.25;;;54.38;;
48578;SDS011;34357;51.948;6.132;2022-08-19T08:17:00;80.28;;;55.15;;
48578;SDS011;34357;51.948;6.132;2022-08-19T08:19:29;85.88;;;56.38;;
48578;SDS011;34357;51.948;6.132;2022-08-19T08:21:56;87.00;;;57.58;;
48578;SDS011;34357;51.948;6.132;2022-08-19T08:24:24;90.45;;;60.80;;
48578;SDS011;34357;51.948;6.132;2022-08-19T08:26:51;86.03;;;57.38;;
48578;SDS011;34357;51.948;6.132;2022-08-19T08:29:17;83.72;;;57.47;;
48578;SDS011;34357;51.948;6.132;2022-08-19T08:31:44;84.90;;;59.17;;
48578;SDS011;34357;51.948;6.132;2022-08-19T08:34:11;77.57;;;55.58;;
48578;SDS011;34357;51.948;6.132;2022-08-19T08:36:38;74.00;;;54.10;;
48578;SDS011;34357;51.948;6.132;2022-08-19T08:39:07;75.40;;;54.72;;
48578;SDS011;34357;51.948;6.132;2022-08-19T08:41:50;74.35;;;53.90;;
48578;SDS011;34357;51.948;6.132;2022-08-19T08:44:32;71.65;;;51.75;;
48578;SDS011;34357;51.948;6.132;2022-08-19T08:47:24;65.22;;;48.40;;
48578;SDS011;34357;51.948;6.132;2022-08-19T08:50:03;67.82;;;51.35;;
48578;SDS011;34357;51.948;6.132;2022-08-19T08:52:39;70.15;;;51.95;;
48578;SDS011;34357;51.948;6.132;2022-08-19T08:55:17;64.53;;;46.65;;
48578;SDS011;34357;51.948;6.132;2022-08-19T09:00:19;62.30;;;44.58;;
48578;SDS011;34357;51.948;6.132;2022-08-19T09:02:49;55.70;;;41.90;;
48578;SDS011;34357;51.948;6.132;2022-08-19T09:05:15;53.70;;;42.05;;
48578;SDS011;34357;51.948;6.132;2022-08-19T09:08:15;53.55;;;42.78;;
48578;SDS011;34357;51.948;6.132;2022-08-19T09:10:42;53.42;;;40.85;;
48578;SDS011;34357;51.948;6.132;2022-08-19T09:16:00;49.92;;;36.92;;
48578;SDS011;34357;51.948;6.132;2022-08-19T09:18:41;40.53;;;31.17;;
48578;SDS011;34357;51.948;6.132;2022-08-19T09:21:08;32.03;;;25.80;;
48578;SDS011;34357;51.948;6.132;2022-08-19T09:23:35;28.77;;;22.95;;
48578;SDS011;34357;51.948;6.132;2022-08-19T09:26:06;28.75;;;20.35;;
48578;SDS011;34357;51.948;6.132;2022-08-19T09:28:38;26.40;;;20.35;;
48578;SDS011;34357;51.948;6.132;2022-08-19T09:31:07;24.83;;;17.45;;
48578;SDS011;34357;51.948;6.132;2022-08-19T09:33:33;21.23;;;16.40;;
48578;SDS011;34357;51.948;6.132;2022-08-19T09:36:18;17.65;;;14.05;;
48578;SDS011;34357;51.948;6.132;2022-08-19T09:38:47;24.77;;;15.00;;
48578;SDS011;34357;51.948;6.132;2022-08-19T09:41:14;18.23;;;13.25;;
48578;SDS011;34357;51.948;6.132;2022-08-19T09:43:44;21.73;;;15.75;;
48578;SDS011;34357;51.948;6.132;2022-08-19T09:46:11;24.35;;;18.30;;
48578;SDS011;34357;51.948;6.132;2022-08-19T09:48:37;23.15;;;18.02;;
48578;SDS011;34357;51.948;6.132;2022-08-19T09:51:08;21.88;;;16.30;;
48578;SDS011;34357;51.948;6.132;2022-08-19T09:53:36;21.17;;;14.82;;
48578;SDS011;34357;51.948;6.132;2022-08-19T09:56:03;21.85;;;13.93;;
48578;SDS011;34357;51.948;6.132;2022-08-19T09:58:31;16.38;;;13.65;;
48578;SDS011;34357;51.948;6.132;2022-08-19T10:00:57;14.77;;;12.32;;
48578;SDS011;34357;51.948;6.132;2022-08-19T10:03:25;13.27;;;10.43;;
48578;SDS011;34357;51.948;6.132;2022-08-19T10:05:52;14.23;;;10.93;;
48578;SDS011;34357;51.948;6.132;2022-08-19T10:08:19;15.57;;;10.80;;
48578;SDS011;34357;51.948;6.132;2022-08-19T10:10:51;17.65;;;11.10;;
48578;SDS011;34357;51.948;6.132;2022-08-19T10:13:19;20.08;;;13.30;;
48578;SDS011;34357;51.948;6.132;2022-08-19T10:15:50;21.17;;;14.30;;
48578;SDS011;34357;51.948;6.132;2022-08-19T10:18:18;18.42;;;14.30;;
48578;SDS011;34357;51.948;6.132;2022-08-19T10:20:46;22.20;;;15.35;;
48578;SDS011;34357;51.948;6.132;2022-08-19T10:23:14;26.17;;;18.45;;
48578;SDS011;34357;51.948;6.132;2022-08-19T10:25:40;31.90;;;23.02;;
48578;SDS011;34357;51.948;6.132;2022-08-19T10:28:06;42.78;;;30.08;;
48578;SDS011;34357;51.948;6.132;2022-08-19T10:30:32;43.25;;;31.80;;
48578;SDS011;34357;51.948;6.132;2022-08-19T10:33:00;46.40;;;32.22;;
48578;SDS011;34357;51.948;6.132;2022-08-19T10:35:25;45.53;;;30.73;;
48578;SDS011;34357;51.948;6.132;2022-08-19T10:37:54;43.88;;;30.38;;
48578;SDS011;34357;51.948;6.132;2022-08-19T10:40:25;41.13;;;29.80;;
48578;SDS011;34357;51.948;6.132;2022-08-19T10:42:52;44.60;;;29.27;;
48578;SDS011;34357;51.948;6.132;2022-08-19T10:45:19;44.60;;;31.60;;
48578;SDS011;34357;51.948;6.132;2022-08-19T10:47:47;44.13;;;29.08;;
48578;SDS011;34357;51.948;6.132;2022-08-19T10:50:13;38.78;;;29.27;;
48578;SDS011;34357;51.948;6.132;2022-08-19T10:52:57;47.45;;;28.95;;
48578;SDS011;34357;51.948;6.132;2022-08-19T10:55:27;35.38;;;26.88;;
48578;SDS011;34357;51.948;6.132;2022-08-19T10:58:14;35.95;;;26.67;;
48578;SDS011;34357;51.948;6.132;2022-08-19T11:00:41;36.70;;;24.25;;
48578;SDS011;34357;51.948;6.132;2022-08-19T11:03:10;30.38;;;23.92;;
48578;SDS011;34357;51.948;6.132;2022-08-19T11:05:36;35.22;;;23.75;;
48578;SDS011;34357;51.948;6.132;2022-08-19T11:08:03;31.52;;;22.48;;
48578;SDS011;34357;51.948;6.132;2022-08-19T11:10:28;30.98;;;22.17;;
48578;SDS011;34357;51.948;6.132;2022-08-19T11:12:54;32.20;;;21.17;;
48578;SDS011;34357;51.948;6.132;2022-08-19T11:15:20;27.55;;;20.58;;
48578;SDS011;34357;51.948;6.132;2022-08-19T11:17:46;26.67;;;18.75;;
48578;SDS011;34357;51.948;6.132;2022-08-19T11:20:12;28.85;;;20.38;;
48578;SDS011;34357;51.948;6.132;2022-08-19T11:22:40;29.23;;;19.80;;
48578;SDS011;34357;51.948;6.132;2022-08-19T11:25:07;23.98;;;18.63;;
48578;SDS011;34357;51.948;6.132;2022-08-19T11:27:36;30.55;;;19.20;;
48578;SDS011;34357;51.948;6.132;2022-08-19T11:30:11;25.00;;;17.60;;
48578;SDS011;34357;51.948;6.132;2022-08-19T11:32:38;24.17;;;17.23;;
48578;SDS011;34357;51.948;6.132;2022-08-19T11:35:07;23.42;;;17.58;;
48578;SDS011;34357;51.948;6.132;2022-08-19T11:37:33;22.13;;;17.05;;
48578;SDS011;34357;51.948;6.132;2022-08-19T11:40:03;22.48;;;16.35;;
48578;SDS011;34357;51.948;6.132;2022-08-19T11:42:29;19.63;;;15.20;;
48578;SDS011;34357;51.948;6.132;2022-08-19T11:45:14;26.65;;;16.30;;
48578;SDS011;34357;51.948;6.132;2022-08-19T11:47:40;19.55;;;15.38;;
48578;SDS011;34357;51.948;6.132;2022-08-19T11:50:05;23.13;;;16.08;;
48578;SDS011;34357;51.948;6.132;2022-08-19T11:52:31;25.77;;;18.13;;
48578;SDS011;34357;51.948;6.132;2022-08-19T11:54:57;24.63;;;17.52;;
48578;SDS011;34357;51.948;6.132;2022-08-19T11:57:23;24.98;;;18.00;;
48578;SDS011;34357;51.948;6.132;2022-08-19T11:59:50;24.45;;;19.23;;
48578;SDS011;34357;51.948;6.132;2022-08-19T12:02:17;26.00;;;19.23;;
48578;SDS011;34357;51.948;6.132;2022-08-19T12:04:44;24.70;;;17.48;;
48578;SDS011;34357;51.948;6.132;2022-08-19T12:07:10;25.33;;;18.63;;
48578;SDS011;34357;51.948;6.132;2022-08-19T12:09:35;25.10;;;17.23;;
48578;SDS011;34357;51.948;6.132;2022-08-19T12:12:01;24.83;;;15.82;;
48578;SDS011;34357;51.948;6.132;2022-08-19T12:14:27;23.52;;;16.25;;
48578;SDS011;34357;51.948;6.132;2022-08-19T12:16:55;21.08;;;15.80;;
48578;SDS011;34357;51.948;6.132;2022-08-19T12:19:21;21.38;;;14.57;;
48578;SDS011;34357;51.948;6.132;2022-08-19T12:21:47;22.15;;;14.45;;
48578;SDS011;34357;51.948;6.132;2022-08-19T12:24:13;22.92;;;17.33;;
48578;SDS011;34357;51.948;6.132;2022-08-19T12:26:38;24.65;;;17.80;;
48578;SDS011;34357;51.948;6.132;2022-08-19T12:29:04;23.05;;;17.50;;
48578;SDS011;34357;51.948;6.132;2022-08-19T12:31:30;26.38;;;18.48;;
48578;SDS011;34357;51.948;6.132;2022-08-19T12:33:56;24.30;;;17.30;;
48578;SDS011;34357;51.948;6.132;2022-08-19T12:36:23;21.73;;;17.02;;
48578;SDS011;34357;51.948;6.132;2022-08-19T12:38:50;24.17;;;17.08;;
48578;SDS011;34357;51.948;6.132;2022-08-19T12:41:16;21.33;;;16.38;;
48578;SDS011;34357;51.948;6.132;2022-08-19T12:43:43;19.52;;;15.50;;
48578;SDS011;34357;51.948;6.132;2022-08-19T12:46:10;19.65;;;13.68;;
48578;SDS011;34357;51.948;6.132;2022-08-19T12:48:36;22.70;;;16.35;;
48578;SDS011;34357;51.948;6.132;2022-08-19T12:51:06;21.52;;;16.42;;
48578;SDS011;34357;51.948;6.132;2022-08-19T12:53:35;19.10;;;14.43;;
48578;SDS011;34357;51.948;6.132;2022-08-19T12:56:01;18.83;;;14.73;;
48578;SDS011;34357;51.948;6.132;2022-08-19T12:58:27;23.00;;;14.35;;
48578;SDS011;34357;51.948;6.132;2022-08-19T13:00:53;20.85;;;15.60;;
48578;SDS011;34357;51.948;6.132;2022-08-19T13:03:19;23.58;;;16.25;;
48578;SDS011;34357;51.948;6.132;2022-08-19T13:05:47;26.50;;;19.77;;
48578;SDS011;34357;51.948;6.132;2022-08-19T13:08:15;26.55;;;21.33;;
48578;SDS011;34357;51.948;6.132;2022-08-19T13:10:42;27.20;;;20.42;;
48578;SDS011;34357;51.948;6.132;2022-08-19T13:13:08;27.33;;;22.30;;
48578;SDS011;34357;51.948;6.132;2022-08-19T13:15:36;23.73;;;20.90;;
48578;SDS011;34357;51.948;6.132;2022-08-19T13:18:05;26.13;;;19.93;;
48578;SDS011;34357;51.948;6.132;2022-08-19T13:20:31;25.75;;;19.90;;
48578;SDS011;34357;51.948;6.132;2022-08-19T13:22:57;27.48;;;21.15;;
48578;SDS011;34357;51.948;6.132;2022-08-19T13:25:23;30.00;;;23.27;;
48578;SDS011;34357;51.948;6.132;2022-08-19T13:27:50;28.48;;;21.85;;
48578;SDS011;34357;51.948;6.132;2022-08-19T13:30:16;25.00;;;21.67;;
48578;SDS011;34357;51.948;6.132;2022-08-19T13:33:01;24.13;;;20.38;;
48578;SDS011;34357;51.948;6.132;2022-08-19T13:36:19;28.65;;;22.45;;
48578;SDS011;34357;51.948;6.132;2022-08-19T13:38:26;26.13;;;20.90;;
48578;SDS011;34357;51.948;6.132;2022-08-19T13:40:53;24.70;;;20.90;;
48578;SDS011;34357;51.948;6.132;2022-08-19T13:43:20;26.90;;;22.27;;
48578;SDS011;34357;51.948;6.132;2022-08-19T13:45:52;30.60;;;22.55;;
48578;SDS011;34357;51.948;6.132;2022-08-19T13:48:21;27.05;;;22.55;;
48578;SDS011;34357;51.948;6.132;2022-08-19T13:50:47;31.65;;;23.00;;
48578;SDS011;34357;51.948;6.132;2022-08-19T13:53:13;29.15;;;20.40;;
48578;SDS011;34357;51.948;6.132;2022-08-19T13:55:40;27.23;;;21.65;;
48578;SDS011;34357;51.948;6.132;2022-08-19T13:58:07;23.55;;;19.02;;
48578;SDS011;34357;51.948;6.132;2022-08-19T14:00:35;27.98;;;21.85;;
48578;SDS011;34357;51.948;6.132;2022-08-19T14:03:03;27.92;;;21.05;;
48578;SDS011;34357;51.948;6.132;2022-08-19T14:05:29;25.58;;;19.08;;
48578;SDS011;34357;51.948;6.132;2022-08-19T14:07:56;26.52;;;19.52;;
48578;SDS011;34357;51.948;6.132;2022-08-19T14:10:23;25.27;;;19.48;;
48578;SDS011;34357;51.948;6.132;2022-08-19T14:12:52;22.02;;;19.13;;
48578;SDS011;34357;51.948;6.132;2022-08-19T14:15:20;22.83;;;17.58;;
48578;SDS011;34357;51.948;6.132;2022-08-19T14:17:46;24.75;;;18.35;;
48578;SDS011;34357;51.948;6.132;2022-08-19T14:20:13;23.55;;;18.02;;
48578;SDS011;34357;51.948;6.132;2022-08-19T14:22:40;25.75;;;16.95;;
48578;SDS011;34357;51.948;6.132;2022-08-19T14:25:08;20.92;;;16.13;;
48578;SDS011;34357;51.948;6.132;2022-08-19T14:27:37;21.15;;;17.27;;
48578;SDS011;34357;51.948;6.132;2022-08-19T14:30:06;20.85;;;16.52;;
48578;SDS011;34357;51.948;6.132;2022-08-19T14:32:34;23.50;;;17.63;;
48578;SDS011;34357;51.948;6.132;2022-08-19T14:35:00;19.25;;;15.27;;